createdAt,value
2023-02-14T00:00:12.057Z,1023.99
2023-02-14T00:01:12.056Z,1023.97
2023-02-14T00:02:12.032Z,1023.94
2023-02-14T00:03:12.026Z,1023.95
2023-02-14T00:04:12.011Z,1023.87
2023-02-14T00:05:11.999Z,1023.91
2023-02-14T00:06:11.994Z,1023.84
2023-02-14T00:07:11.990Z,1023.83
2023-02-14T00:08:11.973Z,1023.89
2023-02-14T00:09:11.956Z,1023.89
2023-02-14T00:10:11.952Z,1023.82
2023-02-14T00:11:11.947Z,1023.85
2023-02-14T00:12:11.938Z,1023.88
2023-02-14T00:13:11.938Z,1023.85
2023-02-14T00:14:11.915Z,1023.83
2023-02-14T00:15:11.900Z,1023.86
2023-02-14T00:16:11.897Z,1023.9
2023-02-14T00:17:11.872Z,1023.88
2023-02-14T00:18:11.875Z,1023.78
2023-02-14T00:19:11.848Z,1023.88
2023-02-14T00:20:11.846Z,1023.82
2023-02-14T00:21:11.831Z,1023.82
2023-02-14T00:22:11.827Z,1023.83
2023-02-14T00:23:11.810Z,1023.84
2023-02-14T00:24:11.800Z,1023.84
2023-02-14T00:25:11.786Z,1023.94
2023-02-14T00:26:11.777Z,1023.88
2023-02-14T00:27:11.768Z,1023.93
2023-02-14T00:28:11.763Z,1023.87
2023-02-14T00:29:11.751Z,1023.91
2023-02-14T00:30:11.741Z,1023.94
2023-02-14T00:31:11.741Z,1023.96
2023-02-14T00:32:11.721Z,1024
2023-02-14T00:33:11.709Z,1023.96
2023-02-14T00:34:11.688Z,1024
2023-02-14T00:35:11.711Z,1024
2023-02-14T00:36:11.671Z,1024.08
2023-02-14T00:37:11.664Z,1023.99
2023-02-14T00:38:11.647Z,1024
2023-02-14T00:39:11.638Z,1024.03
2023-02-14T00:40:11.634Z,1024.05
2023-02-14T00:41:11.614Z,1024.04
2023-02-14T00:42:11.628Z,1024.04
2023-02-14T00:43:11.594Z,1024.07
2023-02-14T00:44:11.590Z,1024.01
2023-02-14T00:45:11.577Z,1024.07
2023-02-14T00:46:11.584Z,1024.04
2023-02-14T00:47:11.557Z,1024.09
2023-02-14T00:48:11.542Z,1024.07
2023-02-14T00:49:11.534Z,1024.06
2023-02-14T00:50:11.548Z,1024.04
2023-02-14T00:51:11.523Z,1024.1
2023-02-14T00:52:11.500Z,1024.07
2023-02-14T00:53:11.491Z,1024.11
2023-02-14T00:54:11.480Z,1024.1
2023-02-14T00:55:11.468Z,1024.08
2023-02-14T00:56:11.472Z,1024.08
2023-02-14T00:57:11.456Z,1024.03
2023-02-14T00:58:11.460Z,1024.07
2023-02-14T00:59:11.449Z,1024.07
2023-02-14T01:00:11.416Z,1024.08
2023-02-14T01:01:11.414Z,1024.06
2023-02-14T01:02:11.409Z,1024.04
2023-02-14T01:03:11.402Z,1024.08
2023-02-14T01:04:11.404Z,1024.07
2023-02-14T01:05:11.379Z,1024.16
2023-02-14T01:06:11.354Z,1024.09
2023-02-14T01:07:11.355Z,1024.13
2023-02-14T01:08:11.342Z,1024.14
2023-02-14T01:09:11.330Z,1024.08
2023-02-14T01:10:11.320Z,1024.09
2023-02-14T01:11:11.308Z,1024.02
2023-02-14T01:12:11.292Z,1024.1
2023-02-14T01:13:11.286Z,1024.09
2023-02-14T01:14:11.280Z,1024.11
2023-02-14T01:15:11.265Z,1024.13
2023-02-14T01:16:11.252Z,1024.08
2023-02-14T01:17:11.246Z,1024.07
2023-02-14T01:18:11.228Z,1024.04
2023-02-14T01:19:11.221Z,1024.08
2023-02-14T01:20:11.219Z,1024.02
2023-02-14T01:21:11.212Z,1024.06
2023-02-14T01:22:11.203Z,1024.08
2023-02-14T01:23:11.205Z,1024.07
2023-02-14T01:24:11.169Z,1024.06
2023-02-14T01:25:11.170Z,1024.13
2023-02-14T01:26:11.161Z,1024.09
2023-02-14T01:27:11.143Z,1024.09
2023-02-14T01:28:11.132Z,1024.16
2023-02-14T01:29:11.131Z,1024.13
2023-02-14T01:30:11.116Z,1024.14
2023-02-14T01:31:11.099Z,1024.13
2023-02-14T01:32:11.091Z,1024.17
2023-02-14T01:33:11.104Z,1024.16
2023-02-14T01:34:11.072Z,1024.13
2023-02-14T01:35:11.065Z,1024.21
2023-02-14T01:36:11.045Z,1024.15
2023-02-14T01:37:11.036Z,1024.17
2023-02-14T01:38:11.029Z,1024.22
2023-02-14T01:39:11.018Z,1024.2
2023-02-14T01:40:11.009Z,1024.18
2023-02-14T01:41:11.000Z,1024.23
2023-02-14T01:42:11.014Z,1024.18
2023-02-14T01:43:10.981Z,1024.19
2023-02-14T01:44:11.040Z,1024.13
2023-02-14T01:45:10.972Z,1024.22
2023-02-14T01:46:10.971Z,1024.2
2023-02-14T01:47:10.949Z,1024.14
2023-02-14T01:48:10.927Z,1024.22
2023-02-14T01:49:10.927Z,1024.2
2023-02-14T01:50:10.911Z,1024.19
2023-02-14T01:51:10.901Z,1024.23
2023-02-14T01:52:10.900Z,1024.15
2023-02-14T01:53:10.892Z,1024.16
2023-02-14T01:54:10.865Z,1024.15
2023-02-14T01:55:10.855Z,1024.08
2023-02-14T01:56:10.848Z,1024.11
2023-02-14T01:57:10.841Z,1024.12
2023-02-14T01:58:10.828Z,1024.18
2023-02-14T01:59:10.834Z,1024.13
2023-02-14T02:00:10.812Z,1024.14
2023-02-14T02:01:10.805Z,1024.13
2023-02-14T02:02:10.793Z,1024.14
2023-02-14T02:03:10.774Z,1024.08
2023-02-14T02:04:10.763Z,1024.11
2023-02-14T02:05:10.759Z,1024.07
2023-02-14T02:06:10.746Z,1024.1
2023-02-14T02:07:10.739Z,1024.07
2023-02-14T02:08:10.744Z,1024.11
2023-02-14T02:09:10.711Z,1024.13
2023-02-14T02:10:10.709Z,1024.09
2023-02-14T02:11:10.697Z,1024.05
2023-02-14T02:12:10.688Z,1024.06
2023-02-14T02:13:10.686Z,1024.04
2023-02-14T02:14:10.686Z,1024.07
2023-02-14T02:15:10.663Z,1024.01
2023-02-14T02:16:10.651Z,1024.02
2023-02-14T02:17:10.664Z,1023.99
2023-02-14T02:18:10.640Z,1024.06
2023-02-14T02:19:10.626Z,1023.96
2023-02-14T02:20:10.611Z,1024.01
2023-02-14T02:21:10.587Z,1024.01
2023-02-14T02:22:10.584Z,1023.95
2023-02-14T02:23:10.577Z,1023.91
2023-02-14T02:24:10.587Z,1023.88
2023-02-14T02:25:10.554Z,1023.9
2023-02-14T02:26:10.544Z,1023.9
2023-02-14T02:27:10.538Z,1023.91
2023-02-14T02:28:10.531Z,1023.89
2023-02-14T02:29:10.511Z,1023.88
2023-02-14T02:30:10.498Z,1023.85
2023-02-14T02:31:10.487Z,1023.84
2023-02-14T02:32:10.492Z,1023.81
2023-02-14T02:33:10.464Z,1023.81
2023-02-14T02:34:10.461Z,1023.84
2023-02-14T02:35:10.451Z,1023.75
2023-02-14T02:36:10.456Z,1023.79
2023-02-14T02:37:10.434Z,1023.81
2023-02-14T02:38:10.417Z,1023.78
2023-02-14T02:39:10.407Z,1023.73
2023-02-14T02:40:10.407Z,1023.76
2023-02-14T02:41:10.393Z,1023.72
2023-02-14T02:42:10.375Z,1023.74
2023-02-14T02:43:10.367Z,1023.63
2023-02-14T02:44:10.366Z,1023.74
2023-02-14T02:45:10.342Z,1023.7
2023-02-14T02:46:10.343Z,1023.72
2023-02-14T02:47:10.345Z,1023.75
2023-02-14T02:48:10.315Z,1023.69
2023-02-14T02:49:10.307Z,1023.75
2023-02-14T02:50:10.295Z,1023.7
2023-02-14T02:51:10.284Z,1023.73
2023-02-14T02:52:10.328Z,1023.7
2023-02-14T02:53:10.268Z,1023.71
2023-02-14T02:54:10.254Z,1023.71
2023-02-14T02:55:10.254Z,1023.68
2023-02-14T02:56:10.233Z,1023.66
2023-02-14T02:57:10.220Z,1023.59
2023-02-14T02:58:10.240Z,1023.6
2023-02-14T02:59:10.204Z,1023.59
2023-02-14T03:00:10.193Z,1023.58
2023-02-14T03:01:10.191Z,1023.62
2023-02-14T03:02:10.196Z,1023.62
2023-02-14T03:03:10.173Z,1023.48
2023-02-14T03:04:10.147Z,1023.51
2023-02-14T03:05:10.146Z,1023.39
2023-02-14T03:06:10.137Z,1023.31
2023-02-14T03:07:10.139Z,1023.38
2023-02-14T03:08:10.114Z,1023.37
2023-02-14T03:09:10.146Z,1023.41
2023-02-14T03:10:10.102Z,1023.39
2023-02-14T03:11:10.075Z,1023.35
2023-02-14T03:12:10.075Z,1023.31
2023-02-14T03:13:10.072Z,1023.37
2023-02-14T03:14:10.051Z,1023.45
2023-02-14T03:15:10.041Z,1023.4
2023-02-14T03:16:10.050Z,1023.3
2023-02-14T03:17:10.020Z,1023.31
2023-02-14T03:18:10.027Z,1023.32
2023-02-14T03:19:10.010Z,1023.29
2023-02-14T03:20:09.985Z,1023.33
2023-02-14T03:21:09.977Z,1023.41
2023-02-14T03:22:09.973Z,1023.41
2023-02-14T03:23:09.958Z,1023.36
2023-02-14T03:24:09.954Z,1023.34
2023-02-14T03:25:09.938Z,1023.4
2023-02-14T03:26:09.927Z,1023.41
2023-02-14T03:27:09.927Z,1023.38
2023-02-14T03:28:09.913Z,1023.43
2023-02-14T03:29:09.905Z,1023.31
2023-02-14T03:30:09.932Z,1023.35
2023-02-14T03:31:09.884Z,1023.37
2023-02-14T03:32:09.862Z,1023.31
2023-02-14T03:33:09.869Z,1023.37
2023-02-14T03:34:09.861Z,1023.36
2023-02-14T03:35:09.842Z,1023.35
2023-02-14T03:36:09.862Z,1023.34
2023-02-14T03:37:09.830Z,1023.28
2023-02-14T03:38:09.811Z,1023.32
2023-02-14T03:39:09.797Z,1023.29
2023-02-14T03:40:09.791Z,1023.3
2023-02-14T03:41:09.785Z,1023.27
2023-02-14T03:42:09.771Z,1023.31
2023-02-14T03:43:09.770Z,1023.26
2023-02-14T03:44:09.751Z,1023.27
2023-02-14T03:45:09.734Z,1023.24
2023-02-14T03:46:09.731Z,1023.29
2023-02-14T03:47:09.712Z,1023.26
2023-02-14T03:48:09.717Z,1023.27
2023-02-14T03:49:09.707Z,1023.3
2023-02-14T03:50:09.700Z,1023.22
2023-02-14T03:51:09.674Z,1023.24
2023-02-14T03:52:09.668Z,1023.25
2023-02-14T03:53:09.655Z,1023.29
2023-02-14T03:54:09.665Z,1023.27
2023-02-14T03:55:09.657Z,1023.23
2023-02-14T03:56:09.658Z,1023.23
2023-02-14T03:57:09.618Z,1023.22
2023-02-14T03:58:09.604Z,1023.24
2023-02-14T03:59:09.588Z,1023.22
2023-02-14T04:00:09.590Z,1023.27
2023-02-14T04:01:09.574Z,1023.26
2023-02-14T04:02:09.559Z,1023.25
2023-02-14T04:03:09.558Z,1023.2
2023-02-14T04:04:09.551Z,1023.18
2023-02-14T04:05:09.551Z,1023.15
2023-02-14T04:06:09.526Z,1023.2
2023-02-14T04:07:09.537Z,1023.17
2023-02-14T04:08:09.510Z,1023.11
2023-02-14T04:09:09.487Z,1023.18
2023-02-14T04:10:09.480Z,1023.17
2023-02-14T04:11:09.467Z,1023.16
2023-02-14T04:12:09.472Z,1023.17
2023-02-14T04:13:09.463Z,1023.21
2023-02-14T04:14:09.437Z,1023.22
2023-02-14T04:15:09.429Z,1023.21
2023-02-14T04:16:09.415Z,1023.17
2023-02-14T04:17:09.410Z,1023.18
2023-02-14T04:18:09.396Z,1023.2
2023-02-14T04:19:09.404Z,1023.17
2023-02-14T04:20:09.381Z,1023.18
2023-02-14T04:21:09.370Z,1023.12
2023-02-14T04:22:09.360Z,1023.1
2023-02-14T04:23:09.349Z,1023.12
2023-02-14T04:24:09.344Z,1023.11
2023-02-14T04:25:09.327Z,1023.1
2023-02-14T04:26:09.326Z,1023.1
2023-02-14T04:27:09.320Z,1023.11
2023-02-14T04:28:09.348Z,1023.1
2023-02-14T04:29:09.288Z,1023.1
2023-02-14T04:30:09.322Z,1023.05
2023-02-14T04:31:09.272Z,1023.08
2023-02-14T04:32:09.264Z,1023.04
2023-02-14T04:33:09.252Z,1023.08
2023-02-14T04:34:09.238Z,1023.05
2023-02-14T04:35:09.225Z,1023.05
2023-02-14T04:36:09.222Z,1022.99
2023-02-14T04:37:09.263Z,1023
2023-02-14T04:38:09.200Z,1023.05
2023-02-14T04:39:09.184Z,1023.02
2023-02-14T04:40:09.178Z,1022.99
2023-02-14T04:41:09.169Z,1022.98
2023-02-14T04:42:09.158Z,1023.02
2023-02-14T04:43:09.148Z,1022.97
2023-02-14T04:44:09.130Z,1022.98
2023-02-14T04:45:09.124Z,1022.96
2023-02-14T04:46:09.124Z,1022.96
2023-02-14T04:47:09.113Z,1022.93
2023-02-14T04:48:09.099Z,1022.93
2023-02-14T04:49:09.086Z,1022.92
2023-02-14T04:50:09.071Z,1022.92
2023-02-14T04:51:09.058Z,1022.95
2023-02-14T04:52:09.057Z,1022.94
2023-02-14T04:53:09.050Z,1022.98
2023-02-14T04:54:09.031Z,1022.97
2023-02-14T04:55:09.026Z,1022.97
2023-02-14T04:56:09.005Z,1022.99
2023-02-14T04:57:09.008Z,1022.99
2023-02-14T04:58:08.989Z,1022.98
2023-02-14T04:59:08.995Z,1022.93
2023-02-14T05:00:08.968Z,1022.96
2023-02-14T05:01:08.964Z,1022.93
2023-02-14T05:02:08.953Z,1022.9
2023-02-14T05:03:08.940Z,1022.93
2023-02-14T05:04:08.931Z,1022.91
2023-02-14T05:05:08.914Z,1022.93
2023-02-14T05:06:08.911Z,1023.03
2023-02-14T05:07:08.902Z,1022.94
2023-02-14T05:08:08.888Z,1022.95
2023-02-14T05:09:08.878Z,1022.94
2023-02-14T05:10:08.882Z,1022.98
2023-02-14T05:11:08.876Z,1023
2023-02-14T05:12:08.845Z,1022.93
2023-02-14T05:13:08.837Z,1022.95
2023-02-14T05:14:08.834Z,1022.95
2023-02-14T05:15:08.821Z,1022.92
2023-02-14T05:16:08.809Z,1022.97
2023-02-14T05:17:08.818Z,1022.88
2023-02-14T05:18:08.795Z,1022.92
2023-02-14T05:19:08.780Z,1022.95
2023-02-14T05:20:08.770Z,1022.86
2023-02-14T05:21:08.760Z,1022.84
2023-02-14T05:22:08.752Z,1022.89
2023-02-14T05:23:08.744Z,1022.91
2023-02-14T05:24:08.728Z,1022.93
2023-02-14T05:25:08.715Z,1022.92
2023-02-14T05:26:08.726Z,1022.94
2023-02-14T05:27:08.692Z,1022.93
2023-02-14T05:28:08.686Z,1022.95
2023-02-14T05:29:08.685Z,1022.96
2023-02-14T05:30:08.762Z,1022.91
2023-02-14T05:31:08.649Z,1022.93
2023-02-14T05:32:08.655Z,1022.97
2023-02-14T05:33:08.630Z,1022.95
2023-02-14T05:34:08.630Z,1022.96
2023-02-14T05:35:08.619Z,1022.92
2023-02-14T05:36:08.608Z,1022.94
2023-02-14T05:37:08.592Z,1022.91
2023-02-14T05:38:08.590Z,1022.93
2023-02-14T05:39:08.569Z,1022.93
2023-02-14T05:40:08.574Z,1022.94
2023-02-14T05:41:08.581Z,1022.93
2023-02-14T05:43:08.529Z,1022.89
2023-02-14T05:44:08.525Z,1022.96
2023-02-14T05:45:08.527Z,1022.93
2023-02-14T05:46:08.509Z,1022.94
2023-02-14T05:47:08.496Z,1022.93
2023-02-14T05:48:08.487Z,1022.94
2023-02-14T05:49:08.499Z,1022.89
2023-02-14T05:50:08.492Z,1022.96
2023-02-14T05:51:08.536Z,1022.91
2023-02-14T05:52:08.433Z,1022.94
2023-02-14T05:53:08.429Z,1022.94
2023-02-14T05:54:16.030Z,1022.97
2023-02-14T05:55:08.406Z,1022.91
2023-02-14T05:56:08.397Z,1022.93
2023-02-14T05:57:08.397Z,1022.95
2023-02-14T05:58:08.378Z,1022.91
2023-02-14T05:59:08.370Z,1022.96
2023-02-14T06:00:08.356Z,1022.9
2023-02-14T06:01:08.352Z,1022.89
2023-02-14T06:02:08.339Z,1022.91
2023-02-14T06:03:08.339Z,1022.96
2023-02-14T06:04:08.329Z,1022.93
2023-02-14T06:05:08.305Z,1022.95
2023-02-14T06:06:08.293Z,1022.98
2023-02-14T06:07:08.287Z,1022.92
2023-02-14T06:08:08.274Z,1023.03
2023-02-14T06:09:08.270Z,1023.02
2023-02-14T06:10:08.255Z,1023.05
2023-02-14T06:11:08.239Z,1023.06
2023-02-14T06:12:08.235Z,1023.03
2023-02-14T06:13:08.227Z,1023.05
2023-02-14T06:14:08.214Z,1023.07
2023-02-14T06:15:08.202Z,1023.01
2023-02-14T06:16:08.195Z,1023.03
2023-02-14T06:17:08.188Z,1023.11
2023-02-14T06:18:08.170Z,1023.09
2023-02-14T06:19:08.162Z,1023.05
2023-02-14T06:20:08.163Z,1023.11
2023-02-14T06:21:08.177Z,1023.12
2023-02-14T06:22:08.143Z,1023.09
2023-02-14T06:23:08.126Z,1023.08
2023-02-14T06:24:08.130Z,1023.09
2023-02-14T06:25:08.108Z,1023.07
2023-02-14T06:26:08.091Z,1023.03
2023-02-14T06:27:08.090Z,1023.07
2023-02-14T06:28:08.072Z,1023.06
2023-02-14T06:29:08.059Z,1023.06
2023-02-14T06:30:08.062Z,1023.08
2023-02-14T06:31:08.053Z,1023.02
2023-02-14T06:32:08.029Z,1023.08
2023-02-14T06:33:08.017Z,1023.03
2023-02-14T06:34:08.007Z,1023.04
2023-02-14T06:35:07.999Z,1023.01
2023-02-14T06:36:07.986Z,1023.03
2023-02-14T06:37:07.987Z,1023.02
2023-02-14T06:38:07.980Z,1022.95
2023-02-14T06:39:07.988Z,1022.99
2023-02-14T06:40:07.949Z,1023.02
2023-02-14T06:41:07.936Z,1023.02
2023-02-14T06:42:07.934Z,1023
2023-02-14T06:43:07.925Z,1022.98
2023-02-14T06:44:07.910Z,1022.99
2023-02-14T06:45:07.987Z,1022.96
2023-02-14T06:46:07.895Z,1023.06
2023-02-14T06:47:07.885Z,1023.04
2023-02-14T06:48:07.868Z,1023.03
2023-02-14T06:49:07.856Z,1023.05
2023-02-14T06:50:07.861Z,1023.09
2023-02-14T06:51:07.835Z,1023.13
2023-02-14T06:52:07.823Z,1023.13
2023-02-14T06:53:07.818Z,1023.16
2023-02-14T06:54:07.805Z,1023.18
2023-02-14T06:55:07.800Z,1023.22
2023-02-14T06:56:07.793Z,1023.28
2023-02-14T06:57:07.770Z,1023.28
2023-02-14T06:58:07.769Z,1023.27
2023-02-14T06:59:07.750Z,1023.26
2023-02-14T07:00:07.743Z,1023.21
2023-02-14T07:01:07.750Z,1023.23
2023-02-14T07:02:07.724Z,1023.18
2023-02-14T07:03:07.713Z,1023.22
2023-02-14T07:04:08.528Z,1023.2
2023-02-14T07:05:08.530Z,1023.25
2023-02-14T07:06:07.687Z,1023.23
2023-02-14T07:07:07.684Z,1023.28
2023-02-14T07:08:07.662Z,1023.3
2023-02-14T07:09:07.659Z,1023.27
2023-02-14T07:10:07.656Z,1023.23
2023-02-14T07:11:07.652Z,1023.25
2023-02-14T07:12:07.661Z,1023.21
2023-02-14T07:13:07.669Z,1023.25
2023-02-14T07:14:07.687Z,1023.26
2023-02-14T07:15:07.600Z,1023.29
2023-02-14T07:16:07.581Z,1023.28
2023-02-14T07:17:07.574Z,1023.28
2023-02-14T07:18:07.562Z,1023.26
2023-02-14T07:19:07.647Z,1023.22
2023-02-14T07:20:07.537Z,1023.26
2023-02-14T07:21:07.550Z,1023.31
2023-02-14T07:22:07.535Z,1023.3
2023-02-14T07:23:07.514Z,1023.31
2023-02-14T07:24:07.499Z,1023.32
2023-02-14T07:25:07.488Z,1023.33
2023-02-14T07:26:07.477Z,1023.3
2023-02-14T07:27:07.467Z,1023.33
2023-02-14T07:28:07.460Z,1023.18
2023-02-14T07:29:07.445Z,1023.23
2023-02-14T07:30:07.444Z,1023.27
2023-02-14T07:31:07.426Z,1023.23
2023-02-14T07:32:07.417Z,1023.25
2023-02-14T07:33:07.414Z,1023.23
2023-02-14T07:34:07.396Z,1023.26
2023-02-14T07:35:07.383Z,1023.24
2023-02-14T07:36:07.383Z,1023.25
2023-02-14T07:37:07.363Z,1023.23
2023-02-14T07:38:07.363Z,1023.23
2023-02-14T07:39:07.340Z,1023.23
2023-02-14T07:40:07.331Z,1023.23
2023-02-14T07:41:07.325Z,1023.25
2023-02-14T07:42:07.314Z,1023.26
2023-02-14T07:43:07.304Z,1023.27
2023-02-14T07:44:07.290Z,1023.27
2023-02-14T07:45:07.284Z,1023.25
2023-02-14T07:46:07.272Z,1023.3
2023-02-14T07:47:07.261Z,1023.3
2023-02-14T07:48:07.246Z,1023.26
2023-02-14T07:49:07.242Z,1023.28
2023-02-14T07:50:07.226Z,1023.26
2023-02-14T07:51:07.262Z,1023.22
2023-02-14T07:52:07.208Z,1023.23
2023-02-14T07:53:07.196Z,1023.2
2023-02-14T07:54:07.195Z,1023.14
2023-02-14T07:55:07.186Z,1023.18
2023-02-14T07:56:07.184Z,1023.12
2023-02-14T07:57:07.176Z,1023.12
2023-02-14T07:58:07.152Z,1023.05
2023-02-14T07:59:07.146Z,1023.05
2023-02-14T08:00:07.127Z,1023.1
2023-02-14T08:01:07.115Z,1023.03
2023-02-14T08:02:07.099Z,1023.08
2023-02-14T08:03:07.095Z,1023.12
2023-02-14T08:04:07.080Z,1023.1
2023-02-14T08:05:07.084Z,1023.04
2023-02-14T08:06:07.058Z,1023.06
2023-02-14T08:07:07.050Z,1023.06
2023-02-14T08:08:07.040Z,1023.08
2023-02-14T08:09:07.028Z,1023.04
2023-02-14T08:10:07.018Z,1023.07
2023-02-14T08:11:07.011Z,1023.1
2023-02-14T08:12:06.990Z,1023.03
2023-02-14T08:13:06.988Z,1023.09
2023-02-14T08:14:06.971Z,1023.13
2023-02-14T08:15:06.966Z,1023.06
2023-02-14T08:16:06.962Z,1023.05
2023-02-14T08:17:06.939Z,1023.05
2023-02-14T08:18:06.930Z,1023.07
2023-02-14T08:19:06.915Z,1023.02
2023-02-14T08:20:06.909Z,1022.99
2023-02-14T08:21:06.896Z,1023.07
2023-02-14T08:22:06.892Z,1023.06
2023-02-14T08:23:06.885Z,1023.08
2023-02-14T08:24:06.865Z,1023.03
2023-02-14T08:25:06.856Z,1023.04
2023-02-14T08:26:06.840Z,1023.01
2023-02-14T08:27:06.833Z,1023.03
2023-02-14T08:28:06.830Z,1022.94
2023-02-14T08:29:06.810Z,1022.95
2023-02-14T08:30:06.802Z,1022.95
2023-02-14T08:31:06.802Z,1022.98
2023-02-14T08:32:06.779Z,1022.94
2023-02-14T08:33:06.772Z,1022.93
2023-02-14T08:34:06.784Z,1022.9
2023-02-14T08:35:06.750Z,1022.88
2023-02-14T08:36:06.737Z,1022.86
2023-02-14T08:37:06.723Z,1022.88
2023-02-14T08:38:06.718Z,1022.9
2023-02-14T08:39:06.707Z,1022.84
2023-02-14T08:40:06.712Z,1022.88
2023-02-14T08:41:06.691Z,1022.88
2023-02-14T08:42:06.686Z,1022.85
2023-02-14T08:43:06.667Z,1022.83
2023-02-14T08:44:06.663Z,1022.86
2023-02-14T08:45:06.655Z,1022.85
2023-02-14T08:46:06.634Z,1022.82
2023-02-14T08:47:06.622Z,1022.78
2023-02-14T08:48:06.607Z,1022.82
2023-02-14T08:49:06.610Z,1022.79
2023-02-14T08:50:06.592Z,1022.8
2023-02-14T08:51:06.583Z,1022.79
2023-02-14T08:52:06.569Z,1022.77
2023-02-14T08:53:06.564Z,1022.76
2023-02-14T08:54:06.551Z,1022.74
2023-02-14T08:55:06.555Z,1022.76
2023-02-14T08:56:06.534Z,1022.73
2023-02-14T08:57:06.516Z,1022.8
2023-02-14T08:58:06.509Z,1022.83
2023-02-14T08:59:06.492Z,1022.84
2023-02-14T09:00:06.481Z,1022.82
2023-02-14T09:01:06.473Z,1022.88
2023-02-14T09:02:06.465Z,1022.84
2023-02-14T09:03:06.472Z,1022.85
2023-02-14T09:21:22.271Z,1022.78
2023-02-14T09:22:22.206Z,1022.73
2023-02-14T09:23:22.232Z,1022.81
2023-02-14T09:24:22.851Z,1022.78
2023-02-14T09:25:22.144Z,1022.78
2023-02-14T09:26:22.163Z,1022.77
2023-02-14T09:27:22.163Z,1022.74
2023-02-14T09:28:22.125Z,1022.72
2023-02-14T09:29:22.137Z,1022.76
2023-02-14T09:30:22.094Z,1022.68
2023-02-14T09:31:22.150Z,1022.7
2023-02-14T09:32:22.186Z,1022.71
2023-02-14T09:33:22.069Z,1022.67
2023-02-14T09:34:22.167Z,1022.65
2023-02-14T09:35:22.060Z,1022.69
2023-02-14T09:36:22.040Z,1022.73
2023-02-14T09:37:22.022Z,1022.7
2023-02-14T09:38:22.061Z,1022.73
2023-02-14T09:39:22.031Z,1022.72
2023-02-14T09:40:22.103Z,1022.64
2023-02-14T09:41:21.989Z,1022.69
2023-02-14T09:42:22.063Z,1022.71
2023-02-14T09:43:23.024Z,1022.7
2023-02-14T09:44:22.014Z,1022.69
2023-02-14T09:45:23.040Z,1022.7
2023-02-14T09:46:22.135Z,1022.69
2023-02-14T09:47:21.929Z,1022.75
2023-02-14T09:48:22.293Z,1022.71
2023-02-14T09:49:23.357Z,1022.62
2023-02-14T09:50:21.949Z,1022.63
2023-02-14T09:51:21.887Z,1022.59
2023-02-14T09:52:21.881Z,1022.62
2023-02-14T09:53:21.878Z,1022.66
2023-02-14T09:54:21.898Z,1022.63
2023-02-14T09:55:21.857Z,1022.63
2023-02-14T09:56:21.826Z,1022.55
2023-02-14T09:57:21.818Z,1022.6
2023-02-14T09:58:21.838Z,1022.62
2023-02-14T09:59:21.876Z,1022.6
2023-02-14T10:00:21.788Z,1022.61
2023-02-14T10:01:21.832Z,1022.61
2023-02-14T10:02:21.925Z,1022.59
2023-02-14T10:03:21.764Z,1022.6
2023-02-14T10:04:21.902Z,1022.64
2023-02-14T10:05:21.894Z,1022.61
2023-02-14T10:06:21.732Z,1022.62
2023-02-14T10:07:21.893Z,1022.63
2023-02-14T10:08:21.751Z,1022.64
2023-02-14T10:09:22.721Z,1022.66
2023-02-14T10:10:21.792Z,1022.67
2023-02-14T10:11:21.872Z,1022.63
2023-02-14T10:12:21.734Z,1022.69
2023-02-14T10:13:21.668Z,1022.68
2023-02-14T10:14:21.731Z,1022.7
2023-02-14T10:15:21.632Z,1022.68
2023-02-14T10:16:21.802Z,1022.71
2023-02-14T10:17:21.757Z,1022.73
2023-02-14T10:18:21.838Z,1022.67
2023-02-14T10:19:21.595Z,1022.61
2023-02-14T10:20:21.618Z,1022.61
2023-02-14T10:21:21.654Z,1022.65
2023-02-14T10:22:21.599Z,1022.62
2023-02-14T10:23:21.551Z,1022.62
2023-02-14T10:24:21.772Z,1022.57
2023-02-14T10:25:21.610Z,1022.6
2023-02-14T10:26:21.724Z,1022.52
2023-02-14T10:27:21.503Z,1022.5
2023-02-14T10:28:21.746Z,1022.52
2023-02-14T10:29:21.809Z,1022.47
2023-02-14T10:30:22.574Z,1022.45
2023-02-14T10:31:21.482Z,1022.51
2023-02-14T10:32:21.488Z,1022.53
2023-02-14T10:33:21.535Z,1022.42
2023-02-14T10:34:22.473Z,1022.47
2023-02-14T10:35:21.454Z,1022.43
2023-02-14T10:36:21.474Z,1022.39
2023-02-14T10:37:21.394Z,1022.44
2023-02-14T10:38:21.478Z,1022.42
2023-02-14T10:39:21.387Z,1022.45
2023-02-14T10:40:21.365Z,1022.43
2023-02-14T10:41:21.564Z,1022.45
2023-02-14T10:42:21.655Z,1022.38
2023-02-14T10:43:21.611Z,1022.45
2023-02-14T10:44:21.383Z,1022.41
2023-02-14T10:45:21.898Z,1022.39
2023-02-14T10:46:21.417Z,1022.38
2023-02-14T10:47:21.594Z,1022.4
2023-02-14T10:48:24.030Z,1022.39
2023-02-14T10:49:21.295Z,1022.36
2023-02-14T10:50:21.359Z,1022.38
2023-02-14T10:51:21.268Z,1022.39
2023-02-14T10:52:21.331Z,1022.35
2023-02-14T10:53:21.274Z,1022.38
2023-02-14T10:54:21.232Z,1022.35
2023-02-14T10:55:21.382Z,1022.3
2023-02-14T10:56:21.309Z,1022.29
2023-02-14T10:57:21.263Z,1022.29
2023-02-14T10:58:21.526Z,1022.32
2023-02-14T11:03:40.880Z,1022.35
2023-02-14T11:04:40.677Z,1022.32
2023-02-14T11:05:40.726Z,1022.37
2023-02-14T11:06:40.721Z,1022.34
2023-02-14T11:07:41.109Z,1022.3
2023-02-14T11:08:40.708Z,1022.28
2023-02-14T11:09:41.837Z,1022.18
2023-02-14T11:10:40.619Z,1022.18
2023-02-14T11:11:40.610Z,1022.19
2023-02-14T11:12:40.586Z,1022.26
2023-02-14T11:13:40.612Z,1022.19
2023-02-14T11:14:40.661Z,1022.18
2023-02-14T11:15:40.595Z,1022.18
2023-02-14T11:16:40.939Z,1022.14
2023-02-14T11:17:40.662Z,1022.18
2023-02-14T11:18:41.531Z,1022.15
2023-02-14T11:19:40.509Z,1022.19
2023-02-14T11:20:40.500Z,1022.15
2023-02-14T11:21:40.522Z,1022.11
2023-02-14T11:22:40.481Z,1022.13
2023-02-14T11:23:40.489Z,1022.07
2023-02-14T11:24:40.503Z,1022.14
2023-02-14T11:25:40.535Z,1022.09
2023-02-14T11:26:40.469Z,1022.1
2023-02-14T11:27:40.428Z,1022.06
2023-02-14T11:28:40.424Z,1022.09
2023-02-14T11:29:40.400Z,1022.04
2023-02-14T11:30:40.394Z,1022.09
2023-02-14T11:31:40.468Z,1022.11
2023-02-14T11:32:40.365Z,1022.03
2023-02-14T11:33:40.366Z,1022.08
2023-02-14T11:34:40.359Z,1021.99
2023-02-14T11:35:40.339Z,1022.02
2023-02-14T11:36:40.320Z,1021.96
2023-02-14T11:37:40.313Z,1021.96
2023-02-14T11:38:40.318Z,1021.93
2023-02-14T11:39:40.296Z,1021.95
2023-02-14T11:40:40.287Z,1021.91
2023-02-14T11:41:40.286Z,1021.84
2023-02-14T11:42:40.255Z,1021.93
2023-02-14T11:43:40.248Z,1021.89
2023-02-14T11:44:40.239Z,1021.86
2023-02-14T11:45:40.312Z,1021.83
2023-02-14T11:46:40.225Z,1021.8
2023-02-14T11:47:40.206Z,1021.94
2023-02-14T11:48:40.211Z,1021.97
2023-02-14T11:49:40.191Z,1022.01
2023-02-14T11:50:40.184Z,1021.97
2023-02-14T11:51:40.172Z,1021.93
2023-02-14T11:52:40.151Z,1021.96
2023-02-14T11:53:40.136Z,1021.91
2023-02-14T11:54:40.131Z,1021.91
2023-02-14T11:55:40.150Z,1021.88
2023-02-14T11:56:40.103Z,1021.79
2023-02-14T11:57:40.124Z,1021.85
2023-02-14T11:58:40.096Z,1021.86
2023-02-14T11:59:40.082Z,1021.78
2023-02-14T12:00:40.063Z,1021.88
2023-02-14T12:01:40.056Z,1021.83
2023-02-14T12:02:40.037Z,1021.84
2023-02-14T12:03:40.057Z,1021.81
2023-02-14T12:04:40.032Z,1021.79
2023-02-14T12:05:40.305Z,1021.82
2023-02-14T12:06:40.007Z,1021.83
2023-02-14T12:07:39.991Z,1021.76
2023-02-14T12:08:39.985Z,1021.77
2023-02-14T12:09:39.988Z,1021.77
2023-02-14T12:10:39.959Z,1021.82
2023-02-14T12:11:39.951Z,1021.74
2023-02-14T12:12:39.991Z,1021.77
2023-02-14T12:13:39.934Z,1021.79
2023-02-14T12:14:39.961Z,1021.75
2023-02-14T12:15:39.904Z,1021.76
2023-02-14T12:16:39.902Z,1021.73
2023-02-14T12:17:39.888Z,1021.73
2023-02-14T12:18:39.908Z,1021.68
2023-02-14T12:19:39.871Z,1021.65
2023-02-14T12:20:39.858Z,1021.66
2023-02-14T12:21:39.885Z,1021.66
2023-02-14T12:22:49.978Z,1021.61
2023-02-14T12:29:39.484Z,1021.59
2023-02-14T12:38:44.525Z,1021.51
2023-02-14T12:39:44.475Z,1021.52
2023-02-14T12:40:44.447Z,1021.47
2023-02-14T12:41:44.408Z,1021.5
2023-02-14T12:42:44.457Z,1021.54
2023-02-14T12:43:44.380Z,1021.48
2023-02-14T12:44:44.394Z,1021.47